TimeAKST,TemperatureF,Dew PointF,Humidity,Sea Level PressureIn,VisibilityMPH,Wind Direction,Wind SpeedMPH,Gust SpeedMPH,PrecipitationIn,Events,Conditions,WindDirDegrees,DateUTC
12:53 AM,52.0,35.1,53,29.68,10.0,ENE,17.3,-,N/A,,Clear,60,2014-01-27 09:53:00
1:53 AM,52.0,32.0,47,29.67,10.0,NE,10.4,-,N/A,,Clear,50,2014-01-27 10:53:00
3:53 AM,51.1,28.9,43,29.62,10.0,NE,4.6,-,N/A,,Clear,50,2014-01-27 12:53:00
4:53 AM,54.0,26.1,34,29.60,10.0,East,18.4,23.0,N/A,,Clear,80,2014-01-27 13:53:00
5:53 AM,55.0,27.0,34,29.57,10.0,East,18.4,21.9,N/A,,Scattered Clouds,90,2014-01-27 14:53:00
6:53 AM,55.9,26.1,32,29.55,10.0,East,20.7,-,N/A,,Scattered Clouds,80,2014-01-27 15:53:00
7:53 AM,55.9,26.1,32,29.53,8.0,East,25.3,34.5,N/A,,Scattered Clouds,100,2014-01-27 16:53:00
8:53 AM,55.0,27.0,34,29.54,10.0,ENE,15.0,26.5,N/A,,Scattered Clouds,60,2014-01-27 17:53:00
9:53 AM,55.9,28.0,34,29.48,10.0,NE,19.6,32.2,N/A,,Mostly Cloudy,50,2014-01-27 18:53:00
10:53 AM,51.1,37.0,59,29.51,10.0,ESE,21.9,34.5,0.00,Rain,Light Rain,110,2014-01-27 19:53:00
11:53 AM,48.9,37.0,64,29.57,7.0,East,31.1,38.0,0.04,Rain,Rain,90,2014-01-27 20:53:00
12:53 PM,50.0,37.9,63,29.59,10.0,ENE,19.6,32.2,0.01,,Mostly Cloudy,70,2014-01-27 21:53:00
1:53 PM,48.9,37.9,66,29.65,10.0,East,8.1,-,N/A,,Overcast,90,2014-01-27 22:53:00
2:53 PM,48.0,37.0,66,29.68,10.0,East,10.4,-,N/A,,Mostly Cloudy,80,2014-01-27 23:53:00
3:53 PM,48.9,35.1,59,29.67,10.0,ESE,11.5,18.4,N/A,,Clear,120,2014-01-28 00:53:00
4:53 PM,46.9,35.1,63,29.71,10.0,SSE,10.4,18.4,N/A,,Scattered Clouds,150,2014-01-28 01:53:00
5:53 PM,46.9,34.0,61,29.72,10.0,SSE,15.0,26.5,N/A,,Overcast,150,2014-01-28 02:53:00
6:53 PM,46.0,34.0,63,29.76,10.0,ENE,6.9,-,N/A,,Mostly Cloudy,70,2014-01-28 03:53:00
7:53 PM,46.9,33.1,59,29.78,10.0,ESE,6.9,-,N/A,,Mostly Cloudy,120,2014-01-28 04:53:00
8:53 PM,46.0,32.0,58,29.79,10.0,East,3.5,-,N/A,,Overcast,90,2014-01-28 05:53:00
9:53 PM,45.0,32.0,60,29.81,10.0,ENE,4.6,-,N/A,,Overcast,60,2014-01-28 06:53:00
10:53 PM,46.9,30.9,54,29.83,10.0,East,5.8,-,N/A,,Partly Cloudy,100,2014-01-28 07:53:00
11:53 PM,43.0,30.9,62,29.83,10.0,Calm,Calm,-,N/A,,Mostly Cloudy,0,2014-01-28 08:53:00